Data for 03/25/2010

Time Sea-Level Adjusted Pressure Absolute Pressure Temperature Relative Humidity Dew Point   
(mb) (inHg) (mb) (inHg) (C) (F) (%) (C) (F)
00:05 1016 30 845 24.95 2.3 36.2 47 -7.9 17.7
00:10 1016 30 845 24.95 2.3 36.2 45 -8.4 16.9
00:15 1016 30 845 24.95 2.5 36.5 45 -8.2 17.2
00:20 1016 30 845 24.95 2.5 36.5 44 -8.5 16.7
00:25 1016 30 845 24.95 2.5 36.6 44 -8.6 16.5
00:30 1016 30 845 24.95 2.4 36.3 46 -8.1 17.5
00:35 1016 30 845 24.95 2 35.6 46 -8.5 16.7
00:40 1016 30 845 24.95 1.8 35.2 48 -8.1 17.5
00:45 1016 30 845 24.95 1.6 34.8 49 -8.1 17.3
00:50 1016 30 845 24.95 1.5 34.7 49 -8.1 17.4
00:55 1016 30 845 24.95 1.3 34.3 49 -8.2 17.2
01:00 1016 30 845 24.95 1.3 34.4 48 -8.5 16.8
01:05 1015 29.97 845 24.95 1.7 35 47 -8.5 16.6
01:10 1015 29.97 845 24.95 1.5 34.8 49 -8.1 17.4
01:15 1015 29.97 844 24.92 1.4 34.5 48 -8.5 16.7
01:20 1015 29.97 844 24.92 1.6 34.8 46 -8.8 16.2
01:25 1015 29.97 844 24.92 1.8 35.2 45 -8.9 16
01:30 1015 29.97 844 24.92 1.9 35.4 45 -8.8 16.2
01:35 1015 29.97 844 24.92 1.8 35.3 45 -8.8 16.2
01:40 1015 29.97 844 24.92 1.8 35.2 46 -8.5 16.7
01:45 1015 29.97 844 24.92 1.5 34.7 48 -8.4 16.9
01:50 1015 29.97 844 24.92 1.4 34.5 47 -8.7 16.3
01:55 1015 29.97 844 24.92 1.5 34.6 47 -8.6 16.6
02:00 1015 29.97 844 24.92 1.2 34.1 49 -8.4 16.9
02:05 1015 29.97 844 24.92 1 33.8 50 -8.3 17.1
02:10 1015 29.97 844 24.92 0.9 33.6 49 -8.6 16.4
02:15 1015 29.97 844 24.92 0.9 33.6 49 -8.7 16.3
02:20 1015 29.97 844 24.92 1.1 33.9 47 -8.9 16
02:25 1015 29.97 844 24.92 1.2 34.1 47 -8.9 16
02:30 1015 29.97 844 24.92 1 33.8 49 -8.6 16.6
02:35 1015 29.97 844 24.92 0.9 33.6 48 -8.9 16
02:40 1015 29.97 844 24.92 1.1 34 47 -9.1 15.6
02:45 1015 29.97 844 24.92 1.4 34.5 46 -9.1 15.6
02:50 1015 29.97 844 24.92 1.3 34.4 48 -8.6 16.4
02:55 1014 29.94 844 24.92 1 33.8 48 -8.8 16.1
03:00 1014 29.94 844 24.92 1 33.7 48 -8.9 16
03:05 1014 29.94 844 24.92 1 33.8 48 -8.8 16.1
03:10 1014 29.94 844 24.92 1 33.7 47 -9 15.7
03:15 1014 29.94 843 24.89 1 33.8 47 -8.9 15.9
03:20 1014 29.94 843 24.89 1 33.8 48 -8.9 15.9
03:25 1014 29.94 843 24.89 1 33.8 48 -8.9 16
03:30 1014 29.94 843 24.89 0.9 33.6 49 -8.7 16.3
03:35 1014 29.94 843 24.89 0.7 33.3 48 -9 15.8
03:40 1014 29.94 843 24.89 0.6 33.1 49 -8.8 16.2
03:45 1014 29.94 843 24.89 0.5 32.9 49 -9.1 15.6
03:50 1014 29.94 843 24.89 0.5 32.8 50 -8.9 16
03:55 1014 29.94 843 24.89 0.2 32.3 50 -9 15.9
04:00 1014 29.94 843 24.89 0.4 32.7 49 -9.1 15.7
04:05 1014 29.94 843 24.89 0.4 32.7 50 -8.9 15.9
04:10 1014 29.94 843 24.89 0.4 32.6 50 -9 15.9
04:15 1014 29.94 843 24.89 0.3 32.6 50 -8.9 16
04:20 1013 29.91 843 24.89 0.2 32.4 50 -9 15.8
04:25 1013 29.91 843 24.89 0.2 32.3 51 -8.9 16
04:30 1013 29.91 843 24.89 0.2 32.4 49 -9.2 15.5
04:35 1013 29.91 843 24.89 0.3 32.6 49 -9.2 15.5
04:40 1013 29.91 843 24.89 0.5 32.9 48 -9.2 15.4
04:45 1013 29.91 843 24.89 0.6 33 47 -9.4 15.1
04:50 1013 29.91 842 24.86 0.7 33.2 48 -9.1 15.7
04:55 1013 29.91 842 24.86 0.7 33.3 48 -9 15.8
05:00 1013 29.91 842 24.86 0.6 33.1 48 -9.2 15.5
05:05 1013 29.91 842 24.86 1 33.8 47 -9.1 15.6
05:10 1013 29.91 842 24.86 1 33.9 47 -9 15.7
05:15 1013 29.91 842 24.86 1 33.7 48 -8.9 16.1
05:20 1013 29.91 842 24.86 0.8 33.4 48 -9 15.8
05:25 1013 29.91 842 24.86 0.6 33 50 -8.7 16.3
05:30 1013 29.91 842 24.86 0.4 32.7 49 -9 15.7
05:35 1013 29.91 842 24.86 0.3 32.6 49 -9.1 15.7
05:40 1013 29.91 842 24.86 0.2 32.4 49 -9.3 15.2
05:45 1013 29.91 842 24.86 0.4 32.8 48 -9.5 14.9
05:50 1013 29.91 842 24.86 0.8 33.4 47 -9.4 15.1
05:55 1013 29.91 842 24.86 0.7 33.3 47 -9.3 15.2
06:00 1013 29.91 842 24.86 0.7 33.3 48 -9.1 15.7
06:05 1013 29.91 842 24.86 0.6 33.1 48 -9.2 15.4
06:10 1013 29.91 842 24.86 0.6 33 49 -9 15.8
06:15 1013 29.91 842 24.86 0.6 33.1 48 -9.3 15.3
06:20 1013 29.91 842 24.86 0.9 33.5 46 -9.5 14.9
06:25 1013 29.91 842 24.86 1.1 33.9 46 -9.2 15.4
06:30 1013 29.91 842 24.86 0.7 33.2 49 -8.9 15.9
06:35 1012 29.88 842 24.86 0.3 32.5 49 -9.1 15.6
06:40 1012 29.88 842 24.86 0.1 32.2 49 -9.4 15
06:45 1012 29.88 842 24.86 0.3 32.5 48 -9.4 15
06:50 1012 29.88 842 24.86 0.6 33 47 -9.5 14.8
06:55 1012 29.88 841 24.83 1.1 34 46 -9.4 15.2
07:00 1012 29.88 841 24.83 0.8 33.5 48 -9 15.7
07:05 1012 29.88 841 24.83 0.7 33.3 48 -9.1 15.6
07:10 1012 29.88 841 24.83 0.5 32.9 49 -9 15.9
07:15 1012 29.88 841 24.83 0.2 32.4 50 -9.1 15.5
07:20 1012 29.88 841 24.83 0 32 49 -9.5 14.9
07:25 1012 29.88 841 24.83 0.1 32.3 47 -9.8 14.4
07:30 1012 29.88 841 24.83 0.7 33.2 46 -9.6 14.7
07:35 1012 29.88 841 24.83 0.8 33.5 46 -9.4 15
07:40 1012 29.88 841 24.83 1 33.8 46 -9.5 15
07:45 1012 29.88 841 24.83 1 33.9 47 -9 15.8
07:50 1012 29.88 841 24.83 0.6 33.1 48 -9.2 15.4
07:55 1012 29.88 841 24.83 0.7 33.2 49 -9 15.9
08:00 1012 29.88 841 24.83 0.8 33.4 48 -9.1 15.6
08:05 1012 29.88 841 24.83 1 33.7 47 -9 15.8
08:10 1012 29.88 841 24.83 1 33.7 45 -9.6 14.8
08:15 1012 29.88 841 24.83 1.4 34.5 44 -9.6 14.7
08:20 1012 29.88 841 24.83 1.7 35.1 44 -9.3 15.3
08:25 1012 29.88 841 24.83 1.8 35.2 44 -9.2 15.5
08:30 1012 29.88 841 24.83 1.9 35.4 44 -9 15.8
08:35 1012 29.88 841 24.83 1.7 35.1 45 -9.1 15.6
08:40 1011 29.85 841 24.83 1.8 35.3 44 -9.2 15.4
08:45 1011 29.85 841 24.83 2.2 35.9 43 -9 15.8
08:50 1011 29.85 841 24.83 2.3 36.2 44 -8.7 16.4
08:55 1011 29.85 840 24.81 2.6 36.7 43 -8.8 16.1
09:00 1011 29.85 840 24.81 3 37.4 42 -8.7 16.3
09:05 1011 29.85 840 24.81 3.2 37.8 42 -8.5 16.6
09:10 1011 29.85 840 24.81 3.4 38.1 41 -8.5 16.6
09:15 1011 29.85 840 24.81 3.5 38.3 41 -8.5 16.7
09:20 1011 29.85 840 24.81 4 39.2 40 -8.5 16.7
09:25 1011 29.85 840 24.81 4.3 39.7 39 -8.4 16.9
09:30 1011 29.85 840 24.81 4.2 39.6 39 -8.4 16.8
09:35 1011 29.85 840 24.81 4.4 39.9 38 -8.8 16.2
09:40 1011 29.85 840 24.81 5 41.1 37 -8.4 16.8
09:45 1011 29.85 840 24.81 4.9 40.7 36 -8.8 16.1
09:50 1011 29.85 840 24.81 5.3 41.5 36 -8.8 16.2
09:55 1011 29.85 840 24.81 5.7 42.2 34 -9 15.7
10:00 1011 29.85 840 24.81 5.9 42.7 33 -9.2 15.5
10:05 1011 29.85 840 24.81 6.1 43 33 -9.2 15.5
10:10 1010 29.83 840 24.81 6.5 43.7 32 -9.2 15.4
10:15 1010 29.83 840 24.81 6.8 44.3 30 -9.4 15.2
10:20 1010 29.83 840 24.81 7.4 45.3 30 -9.1 15.7
10:25 1010 29.83 839 24.78 7.8 46 30 -8.9 15.9
10:30 1010 29.83 839 24.78 7.8 46 29 -9.1 15.7
10:35 1010 29.83 839 24.78 8 46.4 29 -9 15.8
10:40 1010 29.83 839 24.78 7.7 45.8 29 -9.4 15
10:45 1010 29.83 839 24.78 7.6 45.6 29 -9.5 14.9
10:50 1010 29.83 839 24.78 8.1 46.6 27 -9.8 14.4
10:55 1010 29.83 839 24.78 8.9 47.9 26 -9.6 14.7
11:00 1010 29.83 839 24.78 8.7 47.7 26 -9.6 14.7
11:05 1010 29.83 839 24.78 9.1 48.3 26 -9.6 14.8
11:10 1010 29.83 839 24.78 9.3 48.7 25 -9.8 14.3
11:15 1010 29.83 839 24.78 9.7 49.4 27 -8.4 16.9
11:20 1009 29.8 839 24.78 10.8 51.5 27 -7.6 18.4
11:25 1009 29.8 839 24.78 10.7 51.2 27 -7.6 18.4
11:30 1009 29.8 838 24.75 10.3 50.6 26 -8.2 17.3
11:35 1009 29.8 838 24.75 9.4 48.8 30 -7.5 18.6
11:40 1009 29.8 838 24.75 8.8 47.8 29 -8.1 17.4
11:45 1009 29.8 838 24.75 8.8 47.8 29 -8.4 16.8
11:50 1009 29.8 838 24.75 10 50 25 -9.1 15.6
11:55 1009 29.8 838 24.75 10.1 50.1 27 -8.2 17.3
12:00 1009 29.8 838 24.75 8.9 48 29 -8.1 17.4
12:05 1009 29.8 838 24.75 9 48.3 27 -9.1 15.7
12:10 1009 29.8 838 24.75 8.8 47.8 28 -8.6 16.6
12:15 1009 29.8 838 24.75 9.9 49.8 29 -7.5 18.6
12:20 1008 29.77 838 24.75 10.2 50.3 27 -8.1 17.5
12:25 1008 29.77 838 24.75 9.9 49.7 27 -8.4 16.9
12:30 1008 29.77 838 24.75 10.5 51 26 -8.3 17
12:35 1008 29.77 838 24.75 10.6 51.1 24 -8.9 16
12:40 1008 29.77 837 24.72 10.8 51.4 24 -8.8 16.2
12:45 1008 29.77 837 24.72 10.1 50.2 26 -8.5 16.7
12:50 1008 29.77 837 24.72 9.2 48.5 27 -8.7 16.3
12:55 1008 29.77 837 24.72 9.1 48.5 27 -9 15.8
13:00 1008 29.77 837 24.72 9.3 48.7 27 -8.8 16.1
13:05 1008 29.77 837 24.72 9.8 49.6 30 -7.1 19.2
13:10 1008 29.77 837 24.72 10.3 50.5 27 -7.9 17.8
13:15 1008 29.77 837 24.72 10.1 50.1 30 -6.6 20.1
13:20 1008 29.77 837 24.72 9.4 48.9 27 -8.6 16.4
13:25 1008 29.77 837 24.72 10.7 51.3 23 -9.5 14.9
13:30 1008 29.77 837 24.72 11.5 52.8 21 -10 14
13:35 1008 29.77 837 24.72 11.7 53 20 -10.4 13.3
13:40 1008 29.77 837 24.72 11.6 52.8 20 -10.8 12.6
13:45 1008 29.77 837 24.72 10.8 51.5 22 -10 13.9
13:50 1007 29.74 837 24.72 11.1 51.9 22 -10.1 13.8
13:55 1007 29.74 837 24.72 11.6 52.9 22 -9.6 14.7
14:00 1007 29.74 837 24.72 12 53.6 21 -9.7 14.6
14:05 1007 29.74 836 24.69 12.4 54.3 20 -10 14.1
14:10 1007 29.74 836 24.69 11.7 53 21 -9.8 14.3
14:15 1007 29.74 836 24.69 12.1 53.8 21 -9.8 14.3
14:20 1007 29.74 836 24.69 12.5 54.5 20 -10.2 13.7
14:25 1007 29.74 836 24.69 12.5 54.4 19 -10.3 13.5
14:30 1007 29.74 836 24.69 12.6 54.8 20 -9.8 14.3
14:35 1007 29.74 836 24.69 12.1 53.8 21 -9.4 15.1
14:40 1007 29.74 836 24.69 11.5 52.7 21 -10.4 13.3
14:45 1007 29.74 836 24.69 11.8 53.3 21 -10 14.1
14:50 1007 29.74 836 24.69 12.2 54 20 -10.1 13.8
14:55 1007 29.74 836 24.69 11.5 52.6 22 -9.6 14.7
15:00 1007 29.74 836 24.69 12.1 53.7 20 -10.3 13.5
15:05 1007 29.74 836 24.69 12.9 55.2 19 -10.3 13.5
15:10 1006 29.71 836 24.69 12.6 54.8 20 -9.8 14.3
15:15 1006 29.71 836 24.69 11.9 53.5 20 -10.4 13.4
15:20 1006 29.71 836 24.69 12 53.5 21 -9.9 14.1
15:25 1006 29.71 836 24.69 12.4 54.3 20 -10.1 13.8
15:30 1006 29.71 836 24.69 12.2 53.9 21 -9.7 14.6
15:35 1006 29.71 836 24.69 12.7 54.8 22 -8.6 16.5
15:40 1006 29.71 836 24.69 12 53.7 24 -8.2 17.3
15:45 1006 29.71 836 24.69 11.7 53 24 -8 17.6
15:50 1007 29.74 836 24.69 11 51.8 27 -7.4 18.7
15:55 1007 29.74 836 24.69 11 51.7 28 -7 19.4
16:00 1007 29.74 836 24.69 10.9 51.7 30 -5.8 21.5
16:05 1007 29.74 836 24.69 9.3 48.8 40 -3.6 25.6
16:10 1007 29.74 836 24.69 8.7 47.6 42 -3.5 25.7
16:15 1007 29.74 836 24.69 8.4 47 43 -3.6 25.6
16:20 1007 29.74 836 24.69 7.9 46.3 45 -3.2 26.2
16:25 1007 29.74 836 24.69 7.6 45.7 46 -3.4 25.9
16:30 1007 29.74 836 24.69 7.6 45.7 43 -4.3 24.2
16:35 1007 29.74 836 24.69 7.6 45.7 43 -4.2 24.5
16:40 1007 29.74 836 24.69 7.7 45.8 43 -4.2 24.5
16:45 1007 29.74 837 24.72 7.5 45.5 44 -3.8 25.1
16:50 1007 29.74 837 24.72 7.4 45.2 45 -3.9 24.9
16:55 1007 29.74 837 24.72 7.2 44.9 46 -3.6 25.6
17:00 1007 29.74 837 24.72 7 44.5 47 -3.6 25.6
17:05 1007 29.74 837 24.72 6.9 44.3 46 -3.9 24.9
17:10 1008 29.77 837 24.72 6.9 44.4 46 -4 24.9
17:15 1008 29.77 837 24.72 6.9 44.4 47 -3.7 25.3
17:20 1008 29.77 837 24.72 6.7 44.1 47 -3.7 25.3
17:25 1008 29.77 837 24.72 6.7 44 49 -3.2 26.2
17:30 1008 29.77 837 24.72 6.7 44.1 48 -3.4 25.9
17:35 1008 29.77 837 24.72 7 44.5 49 -3 26.6
17:40 1008 29.77 837 24.72 7 44.6 49 -2.9 26.7
17:45 1008 29.77 837 24.72 7.2 44.9 49 -2.9 26.8
17:50 1008 29.77 837 24.72 7.3 45.1 49 -2.8 27
17:55 1008 29.77 837 24.72 7.2 44.9 48 -2.9 26.7
18:00 1008 29.77 837 24.72 7.2 44.9 49 -2.8 27
18:05 1008 29.77 837 24.72 7.1 44.8 48 -3 26.5
18:10 1008 29.77 837 24.72 6.8 44.3 50 -2.9 26.8
18:15 1008 29.77 837 24.72 6.7 44.1 50 -2.9 26.7
18:20 1008 29.77 837 24.72 6.8 44.2 50 -2.9 26.8
18:25 1008 29.77 837 24.72 6.7 44 50 -3.1 26.3
18:30 1008 29.77 837 24.72 6.6 43.8 49 -3.4 25.8
18:35 1008 29.77 837 24.72 6.6 43.9 48 -3.5 25.7
18:40 1008 29.77 837 24.72 6.6 43.9 49 -3.4 25.8
18:45 1008 29.77 837 24.72 6.7 44.1 49 -3.2 26.3
18:50 1008 29.77 837 24.72 6.9 44.4 49 -3.2 26.3
18:55 1008 29.77 837 24.72 6.8 44.2 48 -3.6 25.6
19:00 1008 29.77 837 24.72 6.7 44 47 -3.8 25.2
19:05 1008 29.77 837 24.72 6.8 44.2 48 -3.4 25.9
19:10 1007 29.74 837 24.72 6.9 44.4 49 -3.1 26.4
19:15 1007 29.74 837 24.72 7 44.5 49 -3.1 26.4
19:20 1007 29.74 837 24.72 6.8 44.3 49 -3.3 26.1
19:25 1007 29.74 837 24.72 6.6 43.9 51 -2.7 27.2
19:30 1007 29.74 837 24.72 6.2 43.1 54 -2.4 27.7
19:35 1007 29.74 837 24.72 5.4 41.8 55 -2.8 27
19:40 1007 29.74 837 24.72 5.4 41.7 56 -2.7 27.1
19:45 1007 29.74 837 24.72 5.5 42 56 -2.5 27.5
19:50 1008 29.77 837 24.72 5.4 41.8 55 -2.8 26.9
19:55 1008 29.77 837 24.72 5.7 42.2 54 -3 26.6
20:00 1008 29.77 837 24.72 5.7 42.3 53 -3.1 26.5
20:05 1008 29.77 837 24.72 5.8 42.4 54 -2.8 27
20:10 1008 29.77 837 24.72 5.6 42.1 57 -2.3 27.9
20:15 1008 29.77 837 24.72 5.5 41.9 58 -2.1 28.2
20:20 1008 29.77 837 24.72 5.3 41.6 60 -1.9 28.6
20:25 1008 29.77 837 24.72 5.2 41.4 59 -2.2 28.1
20:30 1008 29.77 837 24.72 5.2 41.3 60 -1.9 28.5
20:35 1008 29.77 837 24.72 5.1 41.1 61 -1.8 28.8
20:40 1008 29.77 837 24.72 4.9 40.9 62 -1.8 28.8
20:45 1008 29.77 837 24.72 4.9 40.9 64 -1.3 29.7
20:50 1008 29.77 837 24.72 4.8 40.7 66 -1.1 30.1
20:55 1008 29.77 837 24.72 4.8 40.6 66 -1.1 30
21:00 1008 29.77 837 24.72 4.8 40.7 67 -0.8 30.6
21:05 1008 29.77 837 24.72 4.3 39.7 73 -0.2 31.7
21:10 1008 29.77 837 24.72 3.5 38.3 77 -0.2 31.6
21:15 1008 29.77 837 24.72 3.1 37.5 80 0 32
21:20 1008 29.77 837 24.72 3 37.4 80 -0.1 31.8
21:25 1008 29.77 837 24.72 3.1 37.6 80 0 32.1
21:30 1008 29.77 837 24.72 3.1 37.6 81 0.1 32.2
21:35 1008 29.77 837 24.72 2.8 37 81 -0.1 31.9
21:40 1008 29.77 837 24.72 2.8 37 83 0.2 32.4
21:45 1008 29.77 837 24.72 2.7 36.9 84 0.3 32.5
21:50 1008 29.77 838 24.75 2.3 36.1 88 0.5 32.9
21:55 1008 29.77 837 24.72 1.8 35.2 90 0.3 32.6
22:00 1008 29.77 837 24.72 1.6 34.9 92 0.4 32.8
22:05 1008 29.77 837 24.72 1.5 34.8 92 0.3 32.6
22:10 1008 29.77 837 24.72 1.3 34.3 93 0.3 32.5
22:15 1008 29.77 837 24.72 1.1 34 94 0.3 32.5
22:20 1008 29.77 837 24.72 0.9 33.7 95 0.2 32.3
22:25 1008 29.77 837 24.72 0.8 33.4 96 0.1 32.2
22:30 1008 29.77 837 24.72 0.7 33.3 96 0.1 32.2
22:35 1008 29.77 837 24.72 0.7 33.3 96 0.2 32.4
22:40 1008 29.77 837 24.72 0.7 33.3 96 0.2 32.3
22:45 1008 29.77 837 24.72 0.8 33.4 96 0.2 32.4
22:50 1008 29.77 837 24.72 0.8 33.5 96 0.3 32.5
22:55 1008 29.77 837 24.72 0.9 33.6 96 0.4 32.7
23:00 1008 29.77 837 24.72 0.9 33.6 96 0.3 32.5
23:05 1008 29.77 837 24.72 1 33.7 96 0.4 32.7
23:10 1008 29.77 837 24.72 1.1 34 95 0.4 32.7
23:15 1008 29.77 837 24.72 1.2 34.2 95 0.5 32.9
23:20 1008 29.77 837 24.72 1.4 34.4 95 0.6 33.1
23:25 1008 29.77 837 24.72 1.3 34.4 94 0.5 32.8
23:30 1008 29.77 837 24.72 1.3 34.3 94 0.4 32.7
23:35 1008 29.77 838 24.75 1.4 34.5 94 0.5 32.9
23:40 1008 29.77 838 24.75 1.4 34.6 93 0.5 32.8
23:45 1008 29.77 838 24.75 1.3 34.4 93 0.3 32.5
23:50 1008 29.77 838 24.75 1.2 34.2 93 0.2 32.4
23:55 1008 29.77 838 24.75 1.1 34 93 0.1 32.3
24:00 1008 29.77 838 24.75 1 33.8 94 0.1 32.2